Time;durP1;ratioP1;P1;durP2;ratioP2;P2;SDS_P1;SDS_P2;PMS_P1;PMS_P2;Temp;Humidity;BMP_temperature;BMP_pressure;BME280_temperature;BME280_humidity;BME280_pressure;Samples;Min_cycle;Max_cycle;Signal;HPM_P1;HPM_P2
2021/08/18 00:01:45;;;;;;;20.17;13.07;;;;;;;13.66;99.86;100401.19;4917941;29;20050;-82
2021/08/18 00:04:12;;;;;;;17.95;12.68;;;;;;;13.62;100.00;100408.44;4912837;29;20600;-81
2021/08/18 00:06:39;;;;;;;18.63;11.82;;;;;;;13.64;100.00;100403.91;4917794;29;20040;-83
2021/08/18 00:09:06;;;;;;;18.55;12.63;;;;;;;13.64;100.00;100403.91;4889962;29;20040;-82
2021/08/18 00:11:32;;;;;;;18.15;12.77;;;;;;;13.64;99.54;100408.38;4927056;29;20429;-83
2021/08/18 00:13:59;;;;;;;20.42;12.18;;;;;;;13.64;99.90;100414.53;4906562;29;20046;-82
2021/08/18 00:16:27;;;;;;;21.38;13.02;;;;;;;13.64;100.00;100422.50;4919354;28;20035;-82
2021/08/18 00:18:54;;;;;;;17.13;12.50;;;;;;;13.60;100.00;100418.22;4925365;29;20046;-82
2021/08/18 00:21:22;;;;;;;17.45;12.05;;;;;;;13.67;100.00;100417.06;4916865;29;20046;-82
2021/08/18 00:23:49;;;;;;;19.27;12.40;;;;;;;13.65;99.90;100408.28;4911806;29;20038;-82
2021/08/18 00:26:16;;;;;;;16.33;11.60;;;;;;;13.66;99.26;100412.69;4916569;29;20103;-82
2021/08/18 00:28:43;;;;;;;17.83;11.70;;;;;;;13.63;99.40;100406.63;4920389;29;20095;-82
2021/08/18 00:31:13;;;;;;;18.38;11.70;;;;;;;13.62;99.75;100410.19;4918035;29;20051;-81
2021/08/18 00:33:40;;;;;;;16.80;12.85;;;;;;;13.64;100.00;100411.00;4915183;29;20094;-82
2021/08/18 00:36:07;;;;;;;16.67;12.27;;;;;;;13.62;100.00;100402.22;4917582;28;20040;-82
2021/08/18 00:38:34;;;;;;;19.70;11.38;;;;;;;13.63;100.00;100406.63;4920757;29;20051;-82
2021/08/18 00:41:00;;;;;;;17.50;11.23;;;;;;;13.61;100.00;100411.97;4919423;29;20266;-83
2021/08/18 00:43:27;;;;;;;18.05;11.93;;;;;;;13.62;100.00;100410.19;4919477;29;20039;-82
2021/08/18 00:45:54;;;;;;;19.90;12.18;;;;;;;13.62;99.88;100405.78;4931957;29;20048;-83
2021/08/18 00:48:20;;;;;;;14.43;10.98;;;;;;;13.60;99.73;100404.06;4935900;28;20093;-83
2021/08/18 00:50:47;;;;;;;17.02;12.30;;;;;;;13.53;99.06;100392.81;4926407;29;20387;-82
2021/08/18 00:53:14;;;;;;;18.10;10.82;;;;;;;13.47;100.00;100401.88;4917101;29;20097;-81
2021/08/18 00:55:41;;;;;;;16.08;10.85;;;;;;;13.45;100.00;100403.72;4953885;28;20047;-83
2021/08/18 00:58:09;;;;;;;15.55;11.07;;;;;;;13.43;100.00;100407.34;4910797;29;20052;-82
2021/08/18 01:00:36;;;;;;;17.83;11.50;;;;;;;13.45;100.00;100403.72;4917057;29;20563;-81
2021/08/18 01:03:04;;;;;;;17.75;11.32;;;;;;;13.43;100.00;100394.06;4951579;28;20043;-82
2021/08/18 01:05:31;;;;;;;17.67;11.88;;;;;;;13.48;100.00;100403.59;4941214;28;20054;-82
2021/08/18 01:08:00;;;;;;;15.07;11.13;;;;;;;13.44;100.00;100401.97;4935236;28;20047;-81
2021/08/18 01:10:32;;;;;;;13.55;9.95;;;;;;;13.36;100.00;100404.03;4925496;29;20043;-81
2021/08/18 01:13:00;;;;;;;17.83;11.02;;;;;;;13.39;100.00;100409.25;4931832;29;20035;-82
2021/08/18 01:15:29;;;;;;;15.88;10.35;;;;;;;13.48;100.00;100413.38;4908821;29;20099;-79
2021/08/18 01:17:57;;;;;;;18.52;10.80;;;;;;;13.39;100.00;100400.44;4922160;29;20042;-80
2021/08/18 01:20:30;;;;;;;14.45;10.60;;;;;;;13.37;100.00;100402.25;4935794;28;20046;-82
2021/08/18 01:22:59;;;;;;;15.20;10.50;;;;;;;13.39;100.00;100401.28;4902424;29;20051;-81
2021/08/18 01:25:27;;;;;;;13.75;9.13;;;;;;;13.36;100.00;100401.38;4926069;29;20444;-81
2021/08/18 01:27:57;;;;;;;14.52;10.13;;;;;;;13.35;100.00;100393.50;4920049;29;20062;-81
2021/08/18 01:30:25;;;;;;;15.32;9.77;;;;;;;13.41;100.00;100393.28;4892444;29;20043;-82
2021/08/18 01:32:58;;;;;;;13.75;9.10;;;;;;;13.41;100.00;100394.13;4917933;29;20153;-83
2021/08/18 01:35:33;;;;;;;16.58;11.05;;;;;;;13.39;100.00;100385.38;4919235;29;20136;-82
2021/08/18 01:38:01;;;;;;;17.23;10.32;;;;;;;13.36;100.00;100396.06;4906626;29;20103;-81
2021/08/18 01:40:29;;;;;;;19.83;10.88;;;;;;;13.30;100.00;100390.16;4898564;29;20047;-81
2021/08/18 01:42:56;;;;;;;16.92;11.32;;;;;;;13.24;100.00;100392.09;4903517;29;20051;-81
2021/08/18 01:45:26;;;;;;;16.25;9.88;;;;;;;13.26;100.00;100385.84;4920581;29;20042;-82
2021/08/18 01:47:53;;;;;;;13.45;9.10;;;;;;;13.18;100.00;100381.66;4920227;29;20086;-81
2021/08/18 01:50:20;;;;;;;14.77;9.38;;;;;;;13.19;100.00;100390.47;4911972;28;20101;-82
2021/08/18 01:52:51;;;;;;;12.27;9.40;;;;;;;13.25;100.00;100385.00;4903794;29;20043;-81
2021/08/18 01:55:20;;;;;;;18.20;8.98;;;;;;;13.23;100.00;100384.19;4926408;29;20109;-82
2021/08/18 01:57:49;;;;;;;13.77;9.57;;;;;;;13.27;100.00;100390.25;4935460;29;20043;-82
2021/08/18 02:00:16;;;;;;;13.77;9.93;;;;;;;13.35;100.00;100390.84;4913526;29;20059;-81
2021/08/18 02:02:56;;;;;;;16.50;9.60;;;;;;;13.34;100.00;100400.59;4910830;29;20047;-82
2021/08/18 02:05:26;;;;;;;15.45;10.23;;;;;;;13.36;100.00;100388.13;4932952;29;20138;-81
2021/08/18 02:07:54;;;;;;;14.98;10.23;;;;;;;13.43;100.00;100372.84;4921035;29;20047;-82
2021/08/18 02:10:21;;;;;;;13.65;9.70;;;;;;;13.51;100.00;100378.75;4893973;28;20070;-81
2021/08/18 02:12:48;;;;;;;13.77;10.32;;;;;;;13.49;100.00;100378.81;4937907;29;20110;-81
2021/08/18 02:15:18;;;;;;;15.48;10.07;;;;;;;13.53;100.00;100376.88;4923614;29;20094;-81
2021/08/18 02:17:45;;;;;;;12.18;8.95;;;;;;;13.58;100.00;100377.59;4906368;29;20077;-81
2021/08/18 02:20:14;;;;;;;12.32;8.20;;;;;;;13.47;100.00;100379.78;4902100;29;20110;-83
2021/08/18 02:22:41;;;;;;;15.77;10.65;;;;;;;13.50;100.00;100383.19;4924643;29;20753;-80
2021/08/18 02:25:10;;;;;;;16.15;10.50;;;;;;;13.47;99.62;100385.09;4944135;28;20106;-81
2021/08/18 02:27:39;;;;;;;17.63;10.45;;;;;;;13.44;100.00;100387.84;4932605;29;20115;-82
2021/08/18 02:30:06;;;;;;;13.88;8.70;;;;;;;13.52;100.00;100386.63;4906676;29;20051;-81
2021/08/18 02:32:33;;;;;;;16.23;10.00;;;;;;;13.50;99.32;100369.91;4929881;29;20054;-82
2021/08/18 02:35:00;;;;;;;11.32;9.15;;;;;;;13.52;100.00;100378.69;4935352;29;20054;-82
2021/08/18 02:37:27;;;;;;;13.35;10.18;;;;;;;13.53;100.00;100377.75;4923683;29;20055;-81
2021/08/18 02:39:53;;;;;;;15.07;10.10;;;;;;;13.50;99.43;100380.53;4916466;29;20044;-82
2021/08/18 02:42:20;;;;;;;13.65;9.50;;;;;;;13.58;99.17;100372.28;4904615;29;20047;-82
2021/08/18 02:44:47;;;;;;;13.18;9.40;;;;;;;13.57;99.01;100385.63;4924352;29;20040;-81
2021/08/18 02:47:13;;;;;;;13.20;9.35;;;;;;;13.56;99.49;100367.97;4917263;29;20531;-81
2021/08/18 02:49:41;;;;;;;14.18;8.95;;;;;;;13.48;99.58;100382.38;4918709;29;20051;-81
2021/08/18 02:52:09;;;;;;;15.70;9.88;;;;;;;13.48;99.02;100376.22;4930360;29;20040;-80
2021/08/18 02:54:36;;;;;;;14.48;9.77;;;;;;;13.49;99.48;100384.09;4937446;29;20105;-82
2021/08/18 02:57:03;;;;;;;12.70;8.77;;;;;;;13.50;100.00;100385.84;4936688;29;20126;-81
2021/08/18 02:59:29;;;;;;;12.77;9.73;;;;;;;13.46;100.00;100368.31;4919375;29;20520;-81
2021/08/18 03:01:56;;;;;;;13.10;9.50;;;;;;;13.54;99.66;100365.38;4903635;29;20446;-83
2021/08/18 03:04:23;;;;;;;13.50;9.27;;;;;;;13.52;99.36;100375.16;4922735;29;20537;-82
2021/08/18 03:06:50;;;;;;;16.50;10.07;;;;;;;13.50;98.23;100369.91;4903859;29;20071;-83
2021/08/18 03:09:16;;;;;;;13.68;9.43;;;;;;;13.58;98.31;100360.81;4925515;29;20799;-82
2021/08/18 03:11:43;;;;;;;16.58;10.27;;;;;;;13.57;98.25;100370.56;4919907;29;20091;-81
2021/08/18 03:14:10;;;;;;;17.15;10.00;;;;;;;13.60;97.29;100362.47;4940633;29;20047;-81
2021/08/18 03:16:36;;;;;;;13.13;8.80;;;;;;;13.51;99.06;100363.69;4919442;29;20312;-80
2021/08/18 03:19:03;;;;;;;13.43;10.10;;;;;;;13.57;99.05;100367.91;4906681;29;20047;-81
2021/08/18 03:21:30;;;;;;;15.40;9.45;;;;;;;13.56;99.11;100383.88;4914600;29;20079;-81
2021/08/18 03:23:57;;;;;;;14.20;9.27;;;;;;;13.61;98.25;100373.94;4918058;29;20043;-81
2021/08/18 03:26:23;;;;;;;15.43;10.73;;;;;;;13.56;98.74;100371.47;5013197;23;21950;-81
2021/08/18 03:28:50;;;;;;;14.30;9.75;;;;;;;13.56;98.94;100375.94;4987622;28;20490;-80
2021/08/18 03:31:17;;;;;;;14.82;9.30;;;;;;;13.63;97.94;100374.78;4961769;28;20045;-79
2021/08/18 03:33:43;;;;;;;16.25;9.90;;;;;;;13.54;98.30;100373.34;4991790;28;20060;-80
2021/08/18 03:36:10;;;;;;;12.90;8.88;;;;;;;13.55;98.12;100376.84;4957823;28;20108;-81
2021/08/18 03:38:37;;;;;;;12.80;9.18;;;;;;;13.59;98.53;100373.16;4972975;28;20099;-80
2021/08/18 03:41:03;;;;;;;13.27;9.95;;;;;;;13.62;97.73;100375.69;4984264;28;20049;-80
2021/08/18 03:43:30;;;;;;;13.50;9.38;;;;;;;13.61;99.26;100363.34;4975852;28;20291;-80
2021/08/18 03:45:57;;;;;;;13.63;9.90;;;;;;;13.56;97.96;100371.47;4956505;28;20046;-79
2021/08/18 03:48:23;;;;;;;13.68;9.27;;;;;;;13.59;98.95;100365.19;4994469;28;20042;-79
2021/08/18 03:50:50;;;;;;;13.45;8.40;;;;;;;13.56;98.83;100371.47;4993429;28;20749;-81
2021/08/18 03:53:17;;;;;;;13.35;9.85;;;;;;;13.65;97.88;100379.09;4992341;28;20050;-80
2021/08/18 03:55:44;;;;;;;14.60;10.13;;;;;;;13.63;96.63;100377.44;4968879;28;20396;-80
2021/08/18 03:58:10;;;;;;;12.73;9.07;;;;;;;13.62;97.72;100383.63;4966696;28;20515;-79
2021/08/18 04:00:37;;;;;;;13.50;9.38;;;;;;;13.63;97.70;100374.78;4973771;28;20042;-80
2021/08/18 04:03:04;;;;;;;11.68;8.13;;;;;;;13.57;99.24;100375.00;4982459;28;20045;-80
2021/08/18 04:05:31;;;;;;;13.15;9.38;;;;;;;13.56;98.73;100366.16;4976799;28;20046;-81
2021/08/18 04:07:58;;;;;;;15.07;8.95;;;;;;;13.64;98.15;100381.81;4974628;28;20046;-80
2021/08/18 04:10:25;;;;;;;13.85;9.02;;;;;;;13.56;98.46;100383.88;4992606;28;20038;-80
2021/08/18 04:12:57;;;;;;;14.90;9.00;;;;;;;13.60;98.90;100380.19;4965215;28;20570;-81
2021/08/18 04:15:26;;;;;;;13.13;10.20;;;;;;;13.61;98.67;100381.91;4980647;28;20408;-80
2021/08/18 04:17:54;;;;;;;12.70;9.00;;;;;;;13.56;98.19;100391.84;4977882;28;20069;-80
2021/08/18 04:20:21;;;;;;;14.13;8.93;;;;;;;13.64;98.04;100401.25;4961199;28;20042;-80
2021/08/18 04:22:48;;;;;;;13.82;9.02;;;;;;;13.64;97.65;100398.59;4977775;28;20061;-80
2021/08/18 04:25:17;;;;;;;15.68;9.07;;;;;;;13.64;98.41;100401.25;4987709;28;20050;-80
2021/08/18 04:27:46;;;;;;;14.45;9.73;;;;;;;13.63;97.42;100406.63;4977322;28;20125;-81
2021/08/18 04:30:14;;;;;;;13.95;8.77;;;;;;;13.57;97.71;100410.38;4971369;28;20045;-79
2021/08/18 04:32:41;;;;;;;12.07;9.25;;;;;;;13.62;98.66;100411.09;4982601;28;20049;-82
2021/08/18 04:35:09;;;;;;;13.00;8.88;;;;;;;13.59;98.41;100418.28;4977240;28;20053;-80
2021/08/18 04:37:36;;;;;;;11.25;6.97;;;;;;;13.63;97.96;100407.50;4975062;28;20049;-80
2021/08/18 04:40:05;;;;;;;13.70;9.05;;;;;;;13.63;99.02;100415.47;4969704;28;20450;-81
2021/08/18 04:42:37;;;;;;;11.52;7.68;;;;;;;13.65;98.83;100410.09;4978177;28;20038;-82
2021/08/18 04:45:04;;;;;;;11.48;8.40;;;;;;;13.64;98.07;100417.19;4972171;28;20042;-80
2021/08/18 04:47:31;;;;;;;12.50;7.40;;;;;;;13.66;99.38;100422.44;4976348;28;20030;-81
2021/08/18 04:50:00;;;;;;;10.05;7.15;;;;;;;13.72;97.73;100425.75;4977310;28;20104;-80
2021/08/18 04:52:26;;;;;;;11.93;7.95;;;;;;;13.69;98.69;100427.63;4962246;28;20084;-81
2021/08/18 04:54:53;;;;;;;12.60;7.97;;;;;;;13.74;97.97;100429.19;4986604;28;20073;-79
2021/08/18 04:57:20;;;;;;;13.20;8.07;;;;;;;13.71;97.65;100425.81;4971221;28;20071;-80
2021/08/18 04:59:46;;;;;;;11.52;7.68;;;;;;;13.74;97.79;100436.28;4960120;28;20060;-79
2021/08/18 05:02:13;;;;;;;10.90;7.45;;;;;;;13.67;98.41;100426.81;4992384;28;20488;-80
2021/08/18 05:04:40;;;;;;;11.40;7.68;;;;;;;13.73;98.60;100424.81;4975881;28;20176;-80
2021/08/18 05:07:07;;;;;;;13.73;8.82;;;;;;;13.79;97.86;100423.72;5010964;28;20092;-80
2021/08/18 05:09:34;;;;;;;12.48;6.95;;;;;;;13.79;96.65;100419.28;4996087;28;20045;-79
2021/08/18 05:12:00;;;;;;;10.35;6.75;;;;;;;13.84;98.22;100420.88;4975386;28;20069;-80
2021/08/18 05:14:27;;;;;;;10.85;6.50;;;;;;;13.73;98.54;100424.81;4974534;28;20049;-80
2021/08/18 05:16:53;;;;;;;10.52;7.45;;;;;;;13.87;96.72;100426.06;4961158;28;20037;-80
2021/08/18 05:19:20;;;;;;;11.50;6.70;;;;;;;13.82;97.62;100428.03;4959523;28;20053;-82
2021/08/18 05:21:47;;;;;;;10.35;8.35;;;;;;;13.90;97.94;100415.34;4973014;28;20058;-82
2021/08/18 05:24:13;;;;;;;11.35;7.13;;;;;;;13.92;94.70;100419.66;4966506;28;20057;-81
2021/08/18 05:26:40;;;;;;;9.68;7.72;;;;;;;14.07;95.25;100420.88;4963579;28;20455;-81
2021/08/18 05:29:07;;;;;;;13.10;7.40;;;;;;;14.12;95.29;100423.34;4970480;28;20136;-80
2021/08/18 05:31:34;;;;;;;12.48;6.97;;;;;;;14.15;95.00;100433.88;4977065;28;20518;-81
2021/08/18 05:34:00;;;;;;;8.82;6.38;;;;;;;14.18;95.56;100425.75;4942024;28;20087;-79
2021/08/18 05:36:27;;;;;;;9.88;7.15;;;;;;;14.21;94.78;100425.63;4981623;28;20598;-81
2021/08/18 05:38:54;;;;;;;9.73;6.32;;;;;;;14.29;92.70;100421.78;4992800;28;20046;-81
2021/08/18 05:41:20;;;;;;;10.25;6.80;;;;;;;14.34;92.46;100433.06;4976335;28;20046;-80
2021/08/18 05:43:47;;;;;;;9.02;6.60;;;;;;;14.35;92.17;100434.81;5009057;28;20046;-80
2021/08/18 05:46:14;;;;;;;12.00;7.15;;;;;;;14.37;93.69;100437.41;4991906;28;20042;-79
2021/08/18 05:48:41;;;;;;;9.93;7.95;;;;;;;14.34;92.29;100433.06;4977257;28;20042;-79
2021/08/18 05:51:08;;;;;;;9.02;6.68;;;;;;;14.27;93.89;100428.91;4971988;28;20106;-81
2021/08/18 05:53:35;;;;;;;10.07;6.88;;;;;;;14.31;94.21;100429.69;4955907;28;20038;-81
2021/08/18 05:56:02;;;;;;;8.90;6.82;;;;;;;14.31;93.50;100430.56;4975310;28;20049;-80
2021/08/18 05:58:28;;;;;;;13.73;8.30;;;;;;;14.30;92.58;100433.28;4966233;28;20046;-81
2021/08/18 06:00:55;;;;;;;10.30;6.88;;;;;;;14.29;91.91;100434.16;4955342;28;20100;-80
2021/08/18 06:03:22;;;;;;;11.65;7.10;;;;;;;14.23;92.54;100434.44;4970904;28;20499;-81
2021/08/18 06:05:49;;;;;;;11.10;6.82;;;;;;;14.28;92.35;100440.41;4959854;28;20100;-80
2021/08/18 06:08:16;;;;;;;10.70;7.30;;;;;;;14.28;93.34;100433.31;4982788;28;20069;-82
2021/08/18 06:10:42;;;;;;;10.63;7.15;;;;;;;14.27;93.08;100436.91;4974468;28;20085;-81
2021/08/18 06:13:09;;;;;;;10.88;6.75;;;;;;;14.30;92.83;100430.63;4989303;28;20043;-80
2021/08/18 06:15:36;;;;;;;9.60;7.03;;;;;;;14.30;92.69;100430.63;4970914;28;20448;-81
2021/08/18 06:18:02;;;;;;;9.50;6.40;;;;;;;14.35;90.81;100431.28;4982768;28;20038;-80
2021/08/18 06:20:29;;;;;;;11.50;6.47;;;;;;;14.39;91.48;100430.25;4955971;28;20049;-80
2021/08/18 06:22:56;;;;;;;8.40;5.32;;;;;;;14.35;92.57;100428.63;4976353;28;20053;-81
2021/08/18 06:25:23;;;;;;;9.98;6.40;;;;;;;14.45;90.95;100429.13;4975624;28;20045;-80
2021/08/18 06:27:50;;;;;;;13.68;7.90;;;;;;;14.53;90.93;100435.88;4979489;28;20518;-81
2021/08/18 06:30:17;;;;;;;8.63;6.20;;;;;;;14.53;91.12;100440.34;4980413;28;20053;-81
2021/08/18 06:32:44;;;;;;;9.38;6.38;;;;;;;14.53;88.98;100435.88;4973704;28;20046;-81
2021/08/18 06:35:10;;;;;;;10.45;7.03;;;;;;;14.46;89.36;100441.50;4983268;28;20093;-83
2021/08/18 06:37:38;;;;;;;8.23;6.53;;;;;;;14.48;90.32;100439.69;4975964;28;20046;-82
2021/08/18 06:40:07;;;;;;;11.50;7.10;;;;;;;14.50;89.78;100437.81;4978067;28;20048;-82
2021/08/18 06:42:33;;;;;;;9.43;6.25;;;;;;;14.54;89.14;100434.09;4980032;28;20499;-81
2021/08/18 06:45:00;;;;;;;7.13;6.15;;;;;;;14.48;90.57;100429.91;4962666;28;20140;-81
2021/08/18 06:47:27;;;;;;;8.10;6.13;;;;;;;14.54;91.22;100439.41;4980017;28;20046;-81
2021/08/18 06:49:53;;;;;;;8.52;5.68;;;;;;;14.68;90.76;100442.38;4964142;28;20042;-80
2021/08/18 06:52:20;;;;;;;7.70;5.70;;;;;;;14.74;89.04;100438.63;4987425;28;20593;-80
2021/08/18 06:54:47;;;;;;;7.70;5.53;;;;;;;14.73;88.61;100439.56;4963451;28;20642;-82
2021/08/18 06:57:14;;;;;;;8.27;5.50;;;;;;;14.75;89.28;100438.56;4959637;28;20038;-81
2021/08/18 06:59:40;;;;;;;8.75;5.90;;;;;;;14.81;87.29;100440.97;4975606;28;20423;-81
2021/08/18 07:02:07;;;;;;;9.40;5.78;;;;;;;14.83;87.42;100447.09;4996088;28;20042;-82
2021/08/18 07:04:34;;;;;;;8.43;5.90;;;;;;;14.80;87.39;100447.22;4962731;28;20041;-78
2021/08/18 07:07:01;;;;;;;7.65;5.32;;;;;;;14.87;88.47;100451.34;4980340;28;20041;-80
2021/08/18 07:09:27;;;;;;;8.48;5.85;;;;;;;14.79;86.87;100447.25;4978543;28;20591;-82
2021/08/18 07:11:54;;;;;;;8.63;5.15;;;;;;;14.83;86.29;100447.09;4962722;28;20073;-80
2021/08/18 07:14:21;;;;;;;7.25;5.30;;;;;;;14.84;88.30;100448.81;4976059;28;20589;-82
2021/08/18 07:16:48;;;;;;;8.23;5.30;;;;;;;14.90;88.61;100437.91;4959447;28;20056;-85
2021/08/18 07:19:15;;;;;;;10.52;6.90;;;;;;;15.05;86.98;100433.75;4962974;28;20561;-79
2021/08/18 07:21:41;;;;;;;7.63;5.75;;;;;;;14.99;84.55;100425.16;5011096;28;20041;-79
2021/08/18 07:24:08;;;;;;;7.78;4.90;;;;;;;15.28;86.30;100432.75;4977662;28;20049;-81
2021/08/18 07:26:35;;;;;;;7.88;5.43;;;;;;;15.72;83.26;100422.84;4976642;28;20046;-80
2021/08/18 07:29:02;;;;;;;7.97;5.22;;;;;;;16.12;80.24;100426.31;4977766;28;20030;-81
2021/08/18 07:31:29;;;;;;;9.15;7.43;;;;;;;16.41;76.88;100416.94;4965147;28;20054;-79
2021/08/18 07:33:56;;;;;;;7.32;4.78;;;;;;;16.67;75.85;100425.47;4972249;28;20096;-78
2021/08/18 07:36:23;;;;;;;6.55;4.47;;;;;;;16.96;76.41;100418.69;4980745;28;20435;-79
2021/08/18 07:38:50;;;;;;;6.72;4.75;;;;;;;17.23;74.09;100419.94;4977185;28;20042;-81
2021/08/18 07:41:17;;;;;;;5.65;4.78;;;;;;;17.45;73.10;100409.88;4976921;28;20125;-78
2021/08/18 07:43:44;;;;;;;6.97;5.00;;;;;;;17.52;71.16;100422.91;4975018;28;20057;-81
2021/08/18 07:46:10;;;;;;;6.97;4.60;;;;;;;17.49;73.44;100415.03;4977364;28;20072;-81
2021/08/18 07:48:37;;;;;;;7.78;4.50;;;;;;;17.60;73.17;100413.53;4994708;28;20042;-81
2021/08/18 07:51:04;;;;;;;7.03;5.25;;;;;;;17.78;72.37;100409.06;4962569;28;20511;-81
2021/08/18 07:53:31;;;;;;;6.82;4.68;;;;;;;17.71;71.37;100413.00;4967004;28;20045;-81
2021/08/18 07:55:57;;;;;;;7.95;4.57;;;;;;;17.79;68.22;100421.47;4979915;28;20047;-81
2021/08/18 07:58:24;;;;;;;7.10;4.35;;;;;;;17.92;68.10;100419.00;4975983;28;20042;-82
2021/08/18 08:00:51;;;;;;;6.20;4.22;;;;;;;17.79;68.41;100407.25;4968249;28;20507;-81
2021/08/18 08:03:18;;;;;;;5.50;4.25;;;;;;;17.82;67.99;100417.75;4989278;28;20530;-79
2021/08/18 08:05:45;;;;;;;5.75;3.80;;;;;;;17.93;68.13;100397.53;4990149;28;20155;-83
2021/08/18 08:08:12;;;;;;;4.85;3.75;;;;;;;18.15;68.86;100407.88;4985914;28;20038;-82
2021/08/18 08:10:43;;;;;;;6.95;3.75;;;;;;;18.24;68.38;100419.88;4993345;28;20038;-79
2021/08/18 08:13:09;;;;;;;5.28;3.75;;;;;;;18.23;67.37;100412.78;4969291;28;20033;-82
2021/08/18 08:15:36;;;;;;;6.10;4.28;;;;;;;18.08;65.45;100416.34;4981757;28;20447;-80
2021/08/18 08:18:03;;;;;;;5.07;3.83;;;;;;;18.20;68.77;100404.97;4994493;28;20451;-81
2021/08/18 08:20:30;;;;;;;5.00;3.85;;;;;;;18.20;66.71;100408.50;4974596;28;20104;-81
2021/08/18 08:22:57;;;;;;;5.03;3.55;;;;;;;18.31;68.17;100405.22;4993427;28;20501;-81
2021/08/18 08:25:24;;;;;;;4.47;3.55;;;;;;;18.19;67.10;100400.56;4992925;28;20677;-80
2021/08/18 08:27:50;;;;;;;5.30;3.83;;;;;;;18.38;67.62;100401.25;4990176;28;20100;-81
2021/08/18 08:30:17;;;;;;;4.88;3.40;;;;;;;18.46;68.67;100398.13;4994694;28;20054;-81
2021/08/18 08:32:44;;;;;;;5.90;3.28;;;;;;;18.63;64.99;100407.88;4971262;28;20093;-81
2021/08/18 08:35:11;;;;;;;6.03;4.28;;;;;;;18.88;66.23;100397.47;4976230;28;20037;-81
2021/08/18 08:37:38;;;;;;;6.03;3.30;;;;;;;19.02;65.10;100400.22;4962494;28;20046;-82
2021/08/18 08:40:05;;;;;;;5.93;3.63;;;;;;;18.95;66.40;100404.22;4958272;28;20045;-80
2021/08/18 08:42:32;;;;;;;4.20;3.03;;;;;;;18.88;63.82;100412.69;4974256;28;20443;-82
2021/08/18 08:45:00;;;;;;;4.75;3.30;;;;;;;18.63;65.20;100407.88;4974965;28;20075;-84
2021/08/18 08:47:27;;;;;;;4.93;3.85;;;;;;;18.36;63.28;100410.31;4978748;28;20053;-83
2021/08/18 08:49:56;;;;;;;5.50;2.90;;;;;;;18.38;65.58;100403.06;4976534;28;20050;-83
2021/08/18 08:52:23;;;;;;;4.95;3.28;;;;;;;18.57;65.15;100411.75;4975241;28;20712;-82
2021/08/18 08:54:49;;;;;;;5.22;3.45;;;;;;;18.49;64.11;100417.53;4953760;28;20054;-83
2021/08/18 08:57:16;;;;;;;3.95;2.90;;;;;;;18.37;65.36;100412.03;4969949;28;20459;-84
2021/08/18 08:59:42;;;;;;;5.22;2.88;;;;;;;18.27;65.32;100409.88;4959678;28;20038;-80
2021/08/18 09:02:12;;;;;;;4.20;3.00;;;;;;;18.03;64.64;100413.91;4951784;28;20038;-81
2021/08/18 09:04:44;;;;;;;4.90;3.47;;;;;;;18.05;66.15;100422.72;4968285;28;20043;-81
2021/08/18 09:07:13;;;;;;;5.40;3.25;;;;;;;17.87;65.67;100413.03;4974304;28;20049;-82
2021/08/18 09:09:51;;;;;;;4.05;3.13;;;;;;;17.91;67.72;100418.13;4976517;28;20038;-80
2021/08/18 09:12:19;;;;;;;4.63;2.80;;;;;;;17.89;64.01;100412.00;4957608;28;21004;-80
2021/08/18 09:14:46;;;;;;;4.63;3.13;;;;;;;17.95;66.64;100411.66;4983595;28;20050;-81
2021/08/18 09:17:30;;;;;;;5.28;3.42;;;;;;;17.98;65.80;100411.47;4958503;28;20136;-79
2021/08/18 09:20:11;;;;;;;4.28;3.05;;;;;;;17.95;63.23;100406.31;4975192;28;20046;-82
2021/08/18 09:22:46;;;;;;;4.95;3.28;;;;;;;17.85;64.79;100410.44;4965891;28;20534;-80
2021/08/18 09:25:15;;;;;;;3.70;3.08;;;;;;;17.92;64.41;100406.50;4976246;28;20052;-80
2021/08/18 09:27:45;;;;;;;4.45;3.45;;;;;;;17.96;64.11;100413.38;5030423;23;20051;-81
2021/08/18 09:30:19;;;;;;;5.40;3.42;;;;;;;17.97;65.91;100403.56;4939873;28;20035;-82
2021/08/18 09:32:46;;;;;;;5.78;3.35;;;;;;;18.02;64.87;100406.84;4944434;29;20090;-81
2021/08/18 09:35:15;;;;;;;6.07;3.65;;;;;;;18.25;66.39;100401.09;4928864;28;20039;-82
2021/08/18 09:37:55;;;;;;;4.35;3.10;;;;;;;18.57;64.73;100393.00;4921760;28;20389;-81
2021/08/18 09:40:24;;;;;;;5.30;3.17;;;;;;;18.73;62.87;100388.53;4928422;28;20624;-83
2021/08/18 09:42:51;;;;;;;4.85;3.65;;;;;;;19.01;62.87;100379.75;4937719;29;20111;-83
2021/08/18 09:45:27;;;;;;;4.78;3.40;;;;;;;19.45;61.94;100373.50;4925558;29;20043;-81
2021/08/18 09:48:05;;;;;;;4.97;2.90;;;;;;;19.82;62.16;100373.91;4919696;29;20453;-84
2021/08/18 09:50:44;;;;;;;4.32;3.55;;;;;;;19.93;59.90;100363.38;4933393;28;20073;-80
2021/08/18 09:53:36;;;;;;;7.35;3.50;;;;;;;20.23;59.68;100360.53;4919845;28;20051;-81
2021/08/18 09:56:16;;;;;;;5.05;2.92;;;;;;;20.25;56.99;100354.09;4928717;29;20039;-80
2021/08/18 09:58:48;;;;;;;3.40;2.97;;;;;;;20.60;60.01;100361.69;4909179;29;20043;-82
2021/08/18 10:01:15;;;;;;;3.47;2.75;;;;;;;20.63;55.23;100355.25;4915855;29;20047;-80
2021/08/18 10:03:45;;;;;;;3.35;2.88;;;;;;;20.82;57.17;100361.09;4938626;29;20419;-81
2021/08/18 10:06:12;;;;;;;3.92;2.60;;;;;;;20.95;57.75;100361.13;4936060;29;20412;-80
2021/08/18 10:08:44;;;;;;;3.38;3.00;;;;;;;21.09;57.38;100361.00;4922005;29;20039;-83
2021/08/18 10:11:12;;;;;;;5.28;2.85;;;;;;;21.08;57.35;100357.47;4935909;29;20051;-81
2021/08/18 10:13:40;;;;;;;5.63;2.72;;;;;;;20.44;56.70;100360.97;4920654;29;20071;-80
2021/08/18 10:16:08;;;;;;;3.50;2.63;;;;;;;19.91;58.30;100358.09;4902405;29;20142;-82
2021/08/18 10:18:37;;;;;;;4.80;2.90;;;;;;;19.81;60.58;100358.78;4915166;29;20050;-80
2021/08/18 10:21:18;;;;;;;3.90;2.97;;;;;;;19.58;59.48;100362.91;4911546;29;20046;-80
2021/08/18 10:23:46;;;;;;;4.50;3.47;;;;;;;19.49;61.62;100361.63;4922171;29;20532;-80
2021/08/18 10:26:39;;;;;;;3.70;2.85;;;;;;;19.31;60.37;100365.44;4938011;29;20433;-80
2021/08/18 10:29:09;;;;;;;3.95;2.63;;;;;;;19.20;61.26;100359.88;4942664;29;20568;-80
2021/08/18 10:31:42;;;;;;;4.10;2.50;;;;;;;19.24;61.56;100361.41;4922141;29;20070;-79
2021/08/18 10:34:10;;;;;;;3.47;2.28;;;;;;;19.15;61.70;100361.97;4961775;28;20047;-80
2021/08/18 10:36:40;;;;;;;3.13;2.42;;;;;;;18.97;60.40;100359.47;4924845;28;20094;-81
2021/08/18 10:39:22;;;;;;;3.35;2.47;;;;;;;18.90;62.85;100366.13;4947393;28;20043;-82
2021/08/18 10:42:04;;;;;;;4.00;2.70;;;;;;;18.82;61.28;100361.22;4951142;28;20053;-82
2021/08/18 10:44:49;;;;;;;4.00;2.63;;;;;;;18.89;61.62;100352.84;4913406;29;20051;-81
2021/08/18 10:47:22;;;;;;;3.40;2.65;;;;;;;19.09;63.09;100352.53;4915030;29;20405;-82
2021/08/18 10:50:11;;;;;;;2.83;2.50;;;;;;;19.24;61.93;100353.38;4920872;29;20059;-83
2021/08/18 10:52:40;;;;;;;4.15;2.35;;;;;;;19.37;61.62;100362.41;4920472;29;20051;-81
2021/08/18 10:55:23;;;;;;;3.90;2.45;;;;;;;19.49;60.72;100358.09;4921190;29;20047;-81
2021/08/18 10:57:51;;;;;;;4.35;2.78;;;;;;;19.61;60.56;100354.69;4925026;29;20695;-83
2021/08/18 11:00:39;;;;;;;2.88;2.50;;;;;;;19.93;62.30;100355.34;4922122;29;20142;-82
2021/08/18 11:03:07;;;;;;;3.28;2.70;;;;;;;19.82;59.33;100342.59;4939199;29;20576;-82
2021/08/18 11:05:37;;;;;;;2.92;2.40;;;;;;;19.78;59.26;100345.59;4921703;29;20043;-80
2021/08/18 11:08:08;;;;;;;5.05;2.47;;;;;;;19.70;58.83;100347.88;4922652;29;20043;-81
2021/08/18 11:10:56;;;;;;;3.88;2.53;;;;;;;19.41;58.62;100347.84;4921025;29;20488;-81
2021/08/18 11:13:39;;;;;;;3.38;2.67;;;;;;;19.02;59.11;100364.53;4921750;29;20520;-81
2021/08/18 11:16:07;;;;;;;3.10;2.22;;;;;;;18.93;59.31;100363.28;4922447;29;20047;-81
2021/08/18 11:18:35;;;;;;;4.72;2.63;;;;;;;18.73;61.13;100368.94;4922723;29;20536;-81
2021/08/18 11:21:02;;;;;;;4.60;2.60;;;;;;;18.39;62.84;100375.34;4937472;29;20047;-83
2021/08/18 11:23:30;;;;;;;3.55;2.42;;;;;;;18.16;64.96;100396.25;4923258;29;20047;-80